Monroe County Airport
KBMG : now visible

Airfield :











YOU CAN JOIN US ON...

 
LOGIN :

Register | Disclaimer

   EN    FR    IT 

 









Legend :    VFR   Marginal VFR   IFR   Intensive IFR   Very Intensive IFR
Visi :
Ceiling :
>= 8 km
>= 3000ft
5 to 8 km
1000 to 3000 ft
1500m to 5 km
500 to 1000 ft
800 to 1500m
200 to 500 ft
< 800m
< 200 ft
Symbols :   Thunderstorms  Fog  Heavy snow  Heavy precipitations  Wind > 20 kt






- Airport Elevation : 846 ft
- IATA code : BMG


KBMG - Monroe County

CURRENT METAR :
  • 261553Z 35011KT 1/2SM SN FG BKN006 OVC013 00/M01 A2990 RMK AO2 SLP130 P0003 T00001011

EXPIRED METARs :
  • 261515Z 35009KT 3/4SM -SN BR BKN007 OVC010 01/M01 A2990 RMK AO2 P0001 T00061011
  • 261453Z 34010KT 1 1/4SM -SN BR OVC005 01/M01 A2989 RMK AO2 SLP127 P0002 60004 T00061006 53004
  • 261444Z 35008KT 1SM -SN BR OVC005 01/M01 A2989 RMK AO2 P0002 T00061006
  • 261435Z 35009KT 3/4SM -SN BR OVC004 01/M01 A2988 RMK AO2 P0002 T00061006
  • 261401Z 34007KT 1SM -SN BR OVC004 01/M01 A2988 RMK AO2 P0001 T00111006
  • 261353Z 35006KT 1 1/4SM -SN BR OVC005 01/00 A2988 RMK AO2 RAB11E16SNB1258 SLP123 P0002 T00110000
  • 261325Z 36006KT 1 1/2SM -SN BR OVC006 02/00 A2988 RMK AO2 RAB11E16SNB1258 CIG 003V007 P0001 T00170000
  • 261318Z 36006KT 2SM -SN BR OVC006 02/01 A2989 RMK AO2 RAB11E16SNB1258 CIG 003V009 P0000 T00170006

TAF KBMG
Valid from the 26 at 12:00 until the 27 at 12:00 UTC


261126Z 2612/2712 35005KT 2SM -SNRA BR OVC004
FM261300 35007KT 1SM -SN BR OVC003
FM261700 33011KT 2SM -SN BR OVC008
FM262000 32012G20KT 3SM -SN BR OVC012
FM270200 31014G24KT P6SM OVC018
FM270900 30009KT P6SM BKN020 AMD LTD TO CLD VIS AND WIND TIL 261400



MET'MAP, your aeronautical weather chart ! - Copyright ORBIFLY December 2007 - Disclaimer

ORBIFLY MET'MAP TEAM :

Programming & Development : Alexandra Zaïnal
Concept & original design : Baudouin d'Aumeries
Assistance for programming : Marc-Olivier Méhu
Technical & hardware support : Manuel Goepfert

Contact : metmap@orbifly.com




SOURCES & CREDITS :

   NOAA       Earth
Advisory